createdAt,value
2017-12-29T00:00:58.486Z,11.00
2017-12-29T00:03:31.006Z,16.23
2017-12-29T00:06:03.487Z,16.57
2017-12-29T00:08:36.018Z,12.97
2017-12-29T00:11:08.522Z,12.97
2017-12-29T00:13:41.032Z,13.30
2017-12-29T00:16:13.538Z,17.07
2017-12-29T00:18:46.041Z,12.87
2017-12-29T00:21:18.539Z,14.73
2017-12-29T00:23:51.092Z,13.87
2017-12-29T00:26:23.582Z,13.93
2017-12-29T00:28:56.087Z,12.90
2017-12-29T00:31:28.589Z,15.93
2017-12-29T00:34:01.094Z,12.20
2017-12-29T00:36:33.588Z,11.10
2017-12-29T00:39:06.114Z,10.97
2017-12-29T00:41:38.622Z,11.60
2017-12-29T00:44:11.142Z,12.20
2017-12-29T00:46:43.634Z,14.50
2017-12-29T00:49:16.167Z,11.63
2017-12-29T00:51:48.684Z,19.03
2017-12-29T00:54:21.204Z,11.97
2017-12-29T00:56:53.697Z,17.07
2017-12-29T00:59:26.206Z,15.17
2017-12-29T01:01:58.726Z,14.80
2017-12-29T01:04:31.255Z,13.70
2017-12-29T01:07:03.755Z,12.30
2017-12-29T01:09:36.268Z,16.97
2017-12-29T01:12:08.754Z,14.17
2017-12-29T01:14:41.259Z,11.03
2017-12-29T01:17:13.747Z,14.93
2017-12-29T01:19:46.265Z,15.33
2017-12-29T01:22:18.791Z,18.67
2017-12-29T01:24:51.315Z,16.33
2017-12-29T01:27:23.798Z,15.03
2017-12-29T01:29:56.303Z,15.07
2017-12-29T01:32:28.799Z,15.03
2017-12-29T01:35:01.302Z,15.53
2017-12-29T01:37:33.797Z,15.77
2017-12-29T01:40:06.345Z,16.87
2017-12-29T01:42:38.832Z,12.33
2017-12-29T01:45:11.932Z,17.43
2017-12-29T01:48:00.258Z,18.47
2017-12-29T01:50:32.779Z,15.40
2017-12-29T01:53:05.294Z,14.23
2017-12-29T01:55:37.809Z,13.10
2017-12-29T01:58:10.308Z,14.20
2017-12-29T02:00:43.749Z,14.57
2017-12-29T02:03:16.246Z,13.00
2017-12-29T02:05:48.768Z,15.93
2017-12-29T02:08:21.279Z,16.10
2017-12-29T02:10:53.799Z,12.77
2017-12-29T02:13:26.294Z,10.90
2017-12-29T02:15:58.808Z,13.00
2017-12-29T02:18:31.299Z,16.30
2017-12-29T02:21:03.817Z,10.77
2017-12-29T02:23:36.321Z,21.40
2017-12-29T02:26:08.836Z,14.20
2017-12-29T02:28:42.322Z,14.57
2017-12-29T02:31:14.840Z,18.70
2017-12-29T02:33:47.334Z,12.67
2017-12-29T02:36:19.844Z,14.77
2017-12-29T02:38:52.403Z,8.43
2017-12-29T02:41:24.909Z,11.93
2017-12-29T02:43:57.411Z,12.40
2017-12-29T02:46:29.916Z,11.50
2017-12-29T02:49:03.254Z,13.53
2017-12-29T02:51:35.756Z,13.07
2017-12-29T02:54:08.263Z,15.47
2017-12-29T02:56:40.804Z,14.73
2017-12-29T02:59:13.312Z,13.23
2017-12-29T03:01:45.837Z,13.60
2017-12-29T03:04:18.348Z,15.37
2017-12-29T03:06:50.875Z,15.70
2017-12-29T03:09:23.371Z,12.33
2017-12-29T03:11:55.887Z,16.57
2017-12-29T03:14:28.398Z,11.27
2017-12-29T03:17:01.668Z,11.50
2017-12-29T03:19:34.160Z,15.93
2017-12-29T03:22:06.704Z,13.97
2017-12-29T03:24:39.190Z,19.67
2017-12-29T03:27:11.702Z,14.30
2017-12-29T03:29:44.265Z,15.93
2017-12-29T03:32:16.781Z,11.47
2017-12-29T03:34:49.280Z,15.30
2017-12-29T03:37:21.813Z,13.67
2017-12-29T03:39:54.317Z,14.90
2017-12-29T03:42:26.839Z,15.23
2017-12-29T03:44:59.394Z,19.33
2017-12-29T03:47:32.435Z,14.67
2017-12-29T03:50:04.949Z,14.80
2017-12-29T03:52:37.447Z,17.50
2017-12-29T03:55:09.923Z,15.27
2017-12-29T03:57:42.422Z,15.13
2017-12-29T04:00:14.947Z,17.03
2017-12-29T04:02:47.483Z,16.37
2017-12-29T04:05:19.986Z,15.93
2017-12-29T04:07:52.536Z,18.90
2017-12-29T04:10:25.036Z,16.00
2017-12-29T04:12:57.560Z,22.20
2017-12-29T04:15:30.053Z,18.03
2017-12-29T04:18:03.422Z,14.23
2017-12-29T04:20:35.917Z,10.67
2017-12-29T04:23:08.455Z,16.50
2017-12-29T04:25:40.955Z,14.17
2017-12-29T04:28:13.464Z,15.40
2017-12-29T04:30:45.951Z,15.50
2017-12-29T04:33:18.475Z,13.60
2017-12-29T04:35:50.965Z,17.30
2017-12-29T04:38:23.489Z,13.63
2017-12-29T04:40:55.974Z,12.37
2017-12-29T04:43:28.491Z,17.30
2017-12-29T04:46:01.635Z,12.43
2017-12-29T04:48:34.152Z,14.00
2017-12-29T04:51:06.655Z,12.63
2017-12-29T04:53:39.172Z,14.17
2017-12-29T04:56:11.666Z,15.03
2017-12-29T04:58:44.199Z,13.20
2017-12-29T05:01:17.659Z,15.87
2017-12-29T05:03:50.186Z,15.40
2017-12-29T05:06:22.691Z,14.43
2017-12-29T05:08:55.215Z,18.77
2017-12-29T05:11:27.719Z,14.47
2017-12-29T05:14:00.227Z,14.40
2017-12-29T05:16:33.454Z,12.83
2017-12-29T05:19:05.978Z,14.43
2017-12-29T05:21:38.468Z,13.73
2017-12-29T05:24:10.979Z,14.80
2017-12-29T05:26:43.470Z,13.80
2017-12-29T05:29:16.000Z,13.33
2017-12-29T05:31:52.006Z,15.60
2017-12-29T05:34:24.520Z,11.83
2017-12-29T05:36:57.024Z,13.70
2017-12-29T05:39:29.552Z,13.27
2017-12-29T05:42:02.852Z,12.00
2017-12-29T05:44:35.382Z,15.20
2017-12-29T05:47:07.879Z,19.00
2017-12-29T05:49:40.385Z,12.07
2017-12-29T05:52:12.871Z,16.73
2017-12-29T05:57:25.262Z,11.77
2017-12-29T05:59:57.798Z,11.23
2017-12-29T06:02:30.304Z,13.70
2017-12-29T06:05:02.838Z,13.37
2017-12-29T06:07:35.335Z,18.17
2017-12-29T06:10:08.925Z,15.50
2017-12-29T06:12:41.432Z,15.73
2017-12-29T06:15:13.957Z,13.83
2017-12-29T06:17:46.472Z,13.80
2017-12-29T06:20:19.007Z,17.07
2017-12-29T06:22:51.480Z,15.73
2017-12-29T06:25:24.025Z,14.40
2017-12-29T06:27:56.535Z,17.70
2017-12-29T06:30:29.094Z,20.93
2017-12-29T06:33:01.939Z,16.27
2017-12-29T06:35:34.451Z,17.33
2017-12-29T06:38:06.954Z,17.97
2017-12-29T06:40:39.457Z,19.17
2017-12-29T06:43:11.955Z,15.83
2017-12-29T06:45:44.483Z,20.20
2017-12-29T06:48:16.986Z,25.07
2017-12-29T06:50:49.505Z,17.00
2017-12-29T06:53:22.006Z,28.70
2017-12-29T06:55:54.710Z,19.10
2017-12-29T06:58:27.200Z,24.03
2017-12-29T07:00:59.765Z,20.70
2017-12-29T07:03:33.073Z,19.43
2017-12-29T07:06:05.632Z,17.80
2017-12-29T07:08:38.103Z,15.63
2017-12-29T07:11:10.622Z,17.43
2017-12-29T07:13:43.120Z,16.83
2017-12-29T07:16:15.690Z,16.37
2017-12-29T07:18:48.184Z,26.07
2017-12-29T07:21:20.724Z,15.23
2017-12-29T07:23:53.259Z,20.00
2017-12-29T07:26:25.770Z,15.03
2017-12-29T07:28:58.268Z,19.70
2017-12-29T07:31:30.789Z,20.83
2017-12-29T07:34:03.281Z,21.27
2017-12-29T07:36:35.828Z,20.17
2017-12-29T07:39:08.329Z,20.37
2017-12-29T07:41:40.846Z,20.57
2017-12-29T07:44:13.344Z,17.70
2017-12-29T07:46:45.865Z,19.87
2017-12-29T07:49:18.362Z,19.00
2017-12-29T07:51:50.869Z,19.37
2017-12-29T07:54:23.383Z,18.37
2017-12-29T07:56:55.883Z,16.00
2017-12-29T07:59:28.379Z,19.67
2017-12-29T08:02:00.921Z,16.43
2017-12-29T08:04:33.418Z,17.87
2017-12-29T08:07:05.955Z,18.87
2017-12-29T08:09:38.479Z,18.67
2017-12-29T08:12:10.997Z,15.70
2017-12-29T08:14:43.482Z,17.80
2017-12-29T08:17:15.995Z,14.80
2017-12-29T08:19:48.496Z,18.20
2017-12-29T08:22:21.008Z,18.23
2017-12-29T08:24:53.556Z,17.30
2017-12-29T08:27:26.064Z,19.70
2017-12-29T08:29:58.569Z,19.77
2017-12-29T08:32:31.813Z,22.37
2017-12-29T08:35:04.391Z,21.23
2017-12-29T08:37:36.907Z,22.70
2017-12-29T08:40:09.405Z,30.47
2017-12-29T08:42:41.946Z,22.80
2017-12-29T08:45:14.520Z,21.43
2017-12-29T08:47:47.032Z,20.60
2017-12-29T08:50:19.539Z,18.40
2017-12-29T08:52:52.059Z,25.60
2017-12-29T08:55:24.561Z,24.30
2017-12-29T08:57:57.202Z,21.60
2017-12-29T09:00:29.720Z,30.23
2017-12-29T09:03:02.916Z,20.87
2017-12-29T09:05:35.411Z,21.93
2017-12-29T09:08:07.935Z,20.40
2017-12-29T09:10:40.450Z,20.63
2017-12-29T09:13:12.983Z,19.37
2017-12-29T09:15:45.485Z,19.10
2017-12-29T09:18:18.006Z,20.17
2017-12-29T09:20:50.508Z,17.00
2017-12-29T09:23:23.044Z,23.27
2017-12-29T09:25:55.571Z,27.60
2017-12-29T09:28:28.097Z,27.63
2017-12-29T09:31:00.863Z,25.50
2017-12-29T09:33:33.385Z,27.03
2017-12-29T09:36:05.885Z,23.83
2017-12-29T09:38:38.395Z,21.77
2017-12-29T09:41:10.884Z,23.97
2017-12-29T09:43:43.421Z,19.83
2017-12-29T09:46:15.912Z,22.57
2017-12-29T09:48:48.432Z,17.30
2017-12-29T09:51:20.931Z,23.03
2017-12-29T09:53:53.441Z,21.57
2017-12-29T09:56:25.934Z,22.63
2017-12-29T09:58:58.447Z,21.47
2017-12-29T10:01:30.956Z,25.20
2017-12-29T10:04:04.492Z,24.87
2017-12-29T10:06:37.002Z,18.70
2017-12-29T10:09:10.131Z,18.87
2017-12-29T10:11:42.625Z,15.93
2017-12-29T10:14:15.140Z,23.60
2017-12-29T10:16:47.620Z,18.80
2017-12-29T10:19:20.125Z,25.07
2017-12-29T10:21:52.615Z,20.53
2017-12-29T10:24:25.116Z,29.80
2017-12-29T10:26:57.639Z,15.83
2017-12-29T10:29:30.167Z,24.40
2017-12-29T10:32:03.506Z,19.47
2017-12-29T10:34:36.033Z,16.40
2017-12-29T10:37:08.520Z,18.90
2017-12-29T10:39:41.049Z,20.83
2017-12-29T10:42:13.553Z,16.83
2017-12-29T10:44:46.080Z,15.73
2017-12-29T10:47:18.597Z,17.83
2017-12-29T10:49:51.112Z,14.23
2017-12-29T10:52:23.587Z,18.37
2017-12-29T10:54:56.119Z,16.67
2017-12-29T10:57:28.601Z,15.43
2017-12-29T11:00:01.675Z,15.37
2017-12-29T11:02:34.164Z,17.13
2017-12-29T11:05:07.527Z,19.90
2017-12-29T11:07:40.038Z,14.57
2017-12-29T11:10:12.580Z,13.90
2017-12-29T11:12:45.067Z,12.27
2017-12-29T11:15:17.581Z,14.67
2017-12-29T11:17:50.079Z,14.23
2017-12-29T11:20:22.598Z,23.77
2017-12-29T11:22:55.103Z,15.90
2017-12-29T11:25:27.619Z,13.03
2017-12-29T11:28:00.103Z,16.67
2017-12-29T11:30:33.179Z,15.60
2017-12-29T11:33:05.683Z,11.80
2017-12-29T11:35:38.198Z,13.87
2017-12-29T11:38:10.685Z,13.07
2017-12-29T11:40:43.196Z,11.20
2017-12-29T11:43:15.703Z,12.57
2017-12-29T11:45:48.188Z,7.10
2017-12-29T11:48:20.696Z,13.90
2017-12-29T11:50:53.187Z,13.30
2017-12-29T11:53:25.714Z,13.23
2017-12-29T11:55:58.242Z,10.57
2017-12-29T11:58:31.355Z,10.87
2017-12-29T12:01:03.854Z,11.97
2017-12-29T12:03:37.163Z,7.33
2017-12-29T12:06:09.631Z,9.70
2017-12-29T12:08:42.126Z,9.53
2017-12-29T12:11:14.620Z,6.00
2017-12-29T12:13:47.138Z,10.23
2017-12-29T12:16:19.621Z,10.87
2017-12-29T12:18:52.154Z,7.87
2017-12-29T12:21:24.630Z,10.03
2017-12-29T12:23:57.134Z,5.83
2017-12-29T12:26:29.611Z,7.27
2017-12-29T12:29:02.916Z,7.13
2017-12-29T12:31:35.404Z,10.40
2017-12-29T12:34:07.914Z,5.53
2017-12-29T12:36:40.420Z,10.07
2017-12-29T12:39:12.949Z,9.27
2017-12-29T12:41:45.448Z,5.43
2017-12-29T12:44:17.987Z,5.03
2017-12-29T12:46:50.482Z,4.80
2017-12-29T12:49:22.991Z,4.17
2017-12-29T12:51:55.468Z,6.37
2017-12-29T12:54:27.976Z,5.37
2017-12-29T12:57:00.458Z,4.93
2017-12-29T12:59:33.890Z,5.53
2017-12-29T13:02:06.367Z,6.33
2017-12-29T13:04:38.876Z,4.90
2017-12-29T13:07:11.370Z,4.87
2017-12-29T13:09:43.886Z,2.97
2017-12-29T13:12:16.414Z,3.50
2017-12-29T13:14:48.927Z,5.77
2017-12-29T13:17:21.409Z,6.47
2017-12-29T13:19:53.911Z,3.50
2017-12-29T13:22:26.401Z,4.20
2017-12-29T13:24:58.903Z,7.73
2017-12-29T13:27:31.430Z,5.43
2017-12-29T13:30:03.932Z,4.63
2017-12-29T13:32:36.420Z,7.30
2017-12-29T13:35:08.916Z,3.60
2017-12-29T13:37:41.402Z,7.40
2017-12-29T13:40:14.043Z,7.73
2017-12-29T13:42:46.561Z,7.40
2017-12-29T13:45:19.144Z,6.43
2017-12-29T13:47:51.611Z,7.67
2017-12-29T13:50:24.156Z,5.87
2017-12-29T13:52:56.643Z,5.37
2017-12-29T13:55:29.144Z,4.53
2017-12-29T13:58:02.115Z,2.37
2017-12-29T14:00:34.620Z,2.77
2017-12-29T14:03:07.101Z,5.17
2017-12-29T14:05:39.621Z,4.73
2017-12-29T14:08:12.132Z,4.47
2017-12-29T14:10:44.688Z,3.13
2017-12-29T14:13:17.186Z,2.97
2017-12-29T14:15:49.739Z,6.10
2017-12-29T14:18:22.230Z,2.33
2017-12-29T14:20:54.740Z,2.20
2017-12-29T14:23:27.223Z,4.33
2017-12-29T14:25:59.722Z,5.93
2017-12-29T14:28:33.016Z,2.53
2017-12-29T14:31:05.522Z,4.63
2017-12-29T14:33:38.016Z,3.70
2017-12-29T14:36:10.569Z,5.43
2017-12-29T14:38:43.062Z,1.97
2017-12-29T14:41:15.578Z,4.70
2017-12-29T14:43:48.072Z,4.93
2017-12-29T14:46:20.579Z,2.10
2017-12-29T14:48:53.055Z,4.03
2017-12-29T14:51:25.551Z,1.93
2017-12-29T14:53:58.031Z,4.40
2017-12-29T14:56:30.553Z,3.40
2017-12-29T14:59:03.183Z,1.97
2017-12-29T15:01:35.684Z,1.90
2017-12-29T15:04:08.162Z,6.37
2017-12-29T15:06:40.672Z,2.13
2017-12-29T15:09:13.147Z,2.90
2017-12-29T15:11:45.653Z,5.93
2017-12-29T15:14:18.178Z,8.17
2017-12-29T15:16:50.673Z,1.67
2017-12-29T15:19:23.152Z,2.63
2017-12-29T15:21:55.663Z,1.90
2017-12-29T15:24:28.166Z,2.37
2017-12-29T15:27:02.377Z,3.63
2017-12-29T15:29:34.985Z,5.57
2017-12-29T15:32:07.488Z,4.40
2017-12-29T15:34:39.998Z,2.00
2017-12-29T15:37:12.481Z,2.77
2017-12-29T15:39:44.979Z,3.13
2017-12-29T15:42:17.454Z,4.23
2017-12-29T15:44:49.953Z,3.67
2017-12-29T15:47:22.447Z,6.87
2017-12-29T15:49:54.995Z,9.03
2017-12-29T15:52:27.480Z,5.60
2017-12-29T15:55:00.026Z,2.20
2017-12-29T15:57:32.506Z,4.03
2017-12-29T16:00:05.020Z,4.13
2017-12-29T16:02:37.504Z,1.60
2017-12-29T16:05:10.021Z,5.87
2017-12-29T16:07:42.501Z,4.50
2017-12-29T16:10:15.125Z,2.17
2017-12-29T16:12:47.648Z,3.03
2017-12-29T16:15:20.153Z,3.37
2017-12-29T16:17:52.636Z,6.20
2017-12-29T16:20:25.139Z,3.00
2017-12-29T16:22:57.642Z,3.27
2017-12-29T16:25:30.167Z,3.83
2017-12-29T16:28:03.105Z,4.33
2017-12-29T16:30:35.622Z,2.97
2017-12-29T16:33:08.093Z,3.47
2017-12-29T16:35:40.612Z,4.00
2017-12-29T16:38:13.120Z,3.30
2017-12-29T16:40:45.674Z,6.97
2017-12-29T16:43:18.130Z,4.37
2017-12-29T16:45:51.683Z,4.20
2017-12-29T16:48:24.158Z,4.00
2017-12-29T16:50:56.696Z,2.83
2017-12-29T16:53:29.207Z,2.47
2017-12-29T16:56:02.113Z,2.87
2017-12-29T16:58:34.602Z,3.20
2017-12-29T17:01:07.109Z,3.43
2017-12-29T17:03:39.595Z,4.57
2017-12-29T17:06:12.115Z,4.00
2017-12-29T17:08:44.586Z,3.13
2017-12-29T17:11:17.114Z,3.53
2017-12-29T17:13:49.607Z,3.10
2017-12-29T17:16:22.251Z,3.23
2017-12-29T17:18:54.907Z,2.30
2017-12-29T17:21:27.439Z,3.13
2017-12-29T17:23:59.947Z,3.20
2017-12-29T17:26:33.134Z,4.90
2017-12-29T17:29:05.637Z,2.63
2017-12-29T17:31:38.156Z,2.53
2017-12-29T17:34:10.640Z,2.20
2017-12-29T17:36:43.128Z,3.67
2017-12-29T17:39:15.618Z,3.83
2017-12-29T17:41:48.128Z,6.03
2017-12-29T17:44:20.611Z,3.53
2017-12-29T17:46:53.114Z,3.53
2017-12-29T17:49:26.623Z,3.73
2017-12-29T17:51:59.135Z,5.03
2017-12-29T17:54:32.091Z,4.03
2017-12-29T17:57:04.592Z,3.13
2017-12-29T17:59:37.071Z,2.53
2017-12-29T18:02:09.579Z,5.93
2017-12-29T18:04:42.072Z,4.00
2017-12-29T18:07:14.585Z,3.37
2017-12-29T18:09:47.063Z,2.57
2017-12-29T18:12:19.581Z,4.40
2017-12-29T18:14:52.068Z,3.83
2017-12-29T18:17:24.602Z,4.47
2017-12-29T18:19:57.099Z,2.53
2017-12-29T18:22:29.612Z,2.33
2017-12-29T18:25:02.112Z,2.47
2017-12-29T18:27:34.624Z,2.47
2017-12-29T18:32:45.972Z,4.47
2017-12-29T18:35:18.471Z,4.27
2017-12-29T18:37:50.963Z,2.77
2017-12-29T18:40:23.443Z,3.03
2017-12-29T18:42:55.942Z,4.23
2017-12-29T18:45:28.435Z,7.03
2017-12-29T18:48:01.178Z,1.90
2017-12-29T18:50:33.663Z,2.30
2017-12-29T18:53:06.155Z,2.00
2017-12-29T18:55:38.639Z,2.33
2017-12-29T18:58:11.191Z,2.70
2017-12-29T19:00:43.715Z,2.90
2017-12-29T19:03:16.219Z,2.70
2017-12-29T19:05:48.693Z,2.10
2017-12-29T19:08:21.183Z,4.43
2017-12-29T19:10:53.664Z,3.53
2017-12-29T19:13:26.165Z,5.17
2017-12-29T19:15:58.662Z,4.60
2017-12-29T19:18:31.177Z,3.60
2017-12-29T19:21:03.656Z,2.20
2017-12-29T19:23:36.159Z,2.73
2017-12-29T19:26:08.648Z,4.70
2017-12-29T19:28:41.164Z,5.03
2017-12-29T19:31:13.636Z,3.50
2017-12-29T19:33:46.149Z,3.93
2017-12-29T19:36:18.638Z,3.03
2017-12-29T19:38:51.170Z,2.83
2017-12-29T19:41:23.683Z,6.67
2017-12-29T19:43:56.221Z,3.40
2017-12-29T19:49:07.448Z,4.17
2017-12-29T19:51:40.898Z,4.07
2017-12-29T19:54:13.384Z,2.87
2017-12-29T19:56:45.901Z,7.03
2017-12-29T19:59:18.416Z,3.00
2017-12-29T20:01:50.923Z,3.27
2017-12-29T20:04:23.412Z,3.60
2017-12-29T20:06:55.952Z,5.33
2017-12-29T20:09:28.443Z,5.10
2017-12-29T20:12:01.085Z,3.43
2017-12-29T20:14:33.576Z,2.93
2017-12-29T20:17:06.074Z,2.70
2017-12-29T20:19:38.593Z,3.67
2017-12-29T20:22:11.107Z,5.43
2017-12-29T20:24:43.578Z,2.77
2017-12-29T20:27:16.077Z,4.53
2017-12-29T20:29:48.553Z,3.63
2017-12-29T20:32:21.063Z,3.43
2017-12-29T20:34:53.556Z,4.43
2017-12-29T20:37:26.055Z,2.67
2017-12-29T20:39:58.527Z,2.77
2017-12-29T20:42:31.024Z,4.13
2017-12-29T20:45:06.959Z,3.57
2017-12-29T20:47:39.470Z,8.73
2017-12-29T20:50:11.957Z,5.07
2017-12-29T20:52:44.456Z,3.17
2017-12-29T20:55:16.943Z,3.10
2017-12-29T20:57:50.471Z,4.57
2017-12-29T21:00:22.957Z,7.50
2017-12-29T21:02:55.471Z,5.20
2017-12-29T21:05:27.953Z,3.47
2017-12-29T21:08:00.457Z,3.00
2017-12-29T21:10:32.945Z,5.93
2017-12-29T21:13:05.444Z,4.73
2017-12-29T21:15:37.935Z,6.90
2017-12-29T21:18:10.447Z,6.13
2017-12-29T21:20:43.873Z,4.27
2017-12-29T21:23:16.384Z,4.03
2017-12-29T21:25:48.871Z,5.57
2017-12-29T21:28:21.373Z,5.53
2017-12-29T21:30:53.849Z,4.53
2017-12-29T21:33:26.349Z,5.20
2017-12-29T21:35:58.839Z,5.67
2017-12-29T21:38:31.326Z,4.60
2017-12-29T21:41:03.805Z,5.73
2017-12-29T21:43:36.315Z,3.90
2017-12-29T21:46:08.791Z,4.27
2017-12-29T21:48:41.955Z,4.80
2017-12-29T21:51:14.444Z,6.27
2017-12-29T21:53:46.940Z,4.43
2017-12-29T21:56:19.428Z,3.70
2017-12-29T21:58:51.915Z,8.80
2017-12-29T22:01:24.418Z,5.07
2017-12-29T22:03:57.175Z,4.37
2017-12-29T22:06:29.664Z,4.97
2017-12-29T22:09:02.168Z,4.13
2017-12-29T22:11:34.688Z,6.27
2017-12-29T22:14:07.187Z,3.80
2017-12-29T22:16:39.665Z,4.60
2017-12-29T22:19:12.889Z,5.20
2017-12-29T22:21:45.373Z,3.90
2017-12-29T22:24:17.889Z,6.03
2017-12-29T22:26:50.456Z,4.97
2017-12-29T22:29:22.948Z,5.40
2017-12-29T22:31:55.444Z,3.70
2017-12-29T22:34:28.986Z,4.03
2017-12-29T22:37:01.468Z,4.13
2017-12-29T22:39:33.968Z,4.37
2017-12-29T22:42:06.546Z,5.63
2017-12-29T22:44:39.033Z,4.00
2017-12-29T22:47:12.603Z,3.97
2017-12-29T22:49:45.086Z,3.53
2017-12-29T22:52:17.590Z,4.57
2017-12-29T22:54:50.074Z,3.80
2017-12-29T22:57:22.554Z,3.57
2017-12-29T22:59:55.054Z,3.20
2017-12-29T23:02:27.552Z,4.50
2017-12-29T23:05:00.059Z,5.97
2017-12-29T23:07:32.549Z,3.83
2017-12-29T23:10:05.087Z,5.67
2017-12-29T23:12:37.565Z,3.97
2017-12-29T23:15:10.959Z,4.20
2017-12-29T23:17:43.441Z,5.10
2017-12-29T23:20:15.918Z,6.00
2017-12-29T23:22:48.423Z,4.10
2017-12-29T23:25:20.905Z,3.97
2017-12-29T23:27:53.403Z,4.97
2017-12-29T23:30:25.885Z,6.70
2017-12-29T23:32:58.365Z,4.37
2017-12-29T23:35:30.873Z,4.80
2017-12-29T23:38:03.425Z,4.20
2017-12-29T23:40:36.129Z,4.53
2017-12-29T23:43:09.628Z,4.40
2017-12-29T23:45:42.124Z,4.90
2017-12-29T23:48:14.618Z,4.60
2017-12-29T23:50:47.112Z,4.27
2017-12-29T23:53:19.649Z,4.63
2017-12-29T23:55:52.134Z,4.30
2017-12-29T23:58:24.631Z,4.57
